Vermillion Estates, Illinois
Current Conditions -  °F | °C
As of 12:15 PM on Sunday 25 Jan 2015 (Local Time) from KPNT Reporting Station
Light Snow Light Snow  
Wind Chill: 23°   Ceiling: 600
Heat Index: 34°   Visibility: 2.5mi
Dew Point: 34°   Wind: 18mph
Humidity: 99%   Direction: 30°NNE
Pressure: 29.72"   Gusts: 22mph
Location:  40.8602°N, 88.6284°W
Report Text: KPNT 251815Z AUTO 03016G19KT 2 1/2SM -SN OVC006 01/01 A2972 RMK AO2 T00120010
Loading
Personal Weather Stations






























Interactive Weather Map New forecast layout! Learn more

10-Day Weather Forecast

Advertisements
Track Severe Weather on mobile